Sawyer International Airport
KSAW : rendu visible

Aérodrome :











RETROUVEZ-NOUS SUR...

 
LOGIN :

S'inscrire | Disclaimer

   EN    FR    IT 

 









Légende :    VFR   VFR Marginal   IFR   IFR Intensif   IFR Très Intensif
Visi : 
Plafond : 
>= 8 km
>= 3000ft
5 à 8 km
1000 à 3000 ft
1500m à 5 km
500 à 1000 ft
800 à 1500m
200 à 500 ft
< 800m
< 200 ft
Symboles :   Orages  Brouillard  Fortes neiges  Fortes précipitations  Vent > 20 kt






- Altitude de l'aérodrome : 1221 ft


KSAW - Sawyer International

DERNIER METAR :
  • 150718Z AUTO 28006KT 10SM OVC032 M01/M05 A3003 RMK AO2 T10061055

METARs EXPIRÉS :
  • 150658Z AUTO 28007KT 10SM OVC033 M01/M05 A3002 RMK AO2 T10061055
  • 150639Z AUTO 27005KT 10SM OVC037 M01/M05 A3002 RMK AO2 T10061055
  • 150619Z AUTO 28008KT 10SM BKN030 OVC039 00/M05 A3002 RMK AO2 T10051055
  • 150559Z AUTO 28006G15KT 10SM BKN030 OVC034 00/M05 A3001 RMK AO2 T10051055 11001 21020 410011070
  • 150538Z AUTO 29009KT 10SM BKN027 OVC034 00/M05 A3001 RMK AO2 T10051055
  • 150519Z AUTO 29010G15KT 10SM OVC025 00/M05 A3000 RMK AO2 T10051055
  • 150458Z AUTO 29012KT 10SM OVC025 00/M06 A2999 RMK AO2 T10051056
  • 150438Z AUTO 28012G16KT 10SM OVC025 00/M06 A2999 RMK AO2 T10041057

TAF KSAW
Valide du 15 à 06h jusqu'au 16 à 06h UTC


150528Z 1506/1606 28009KT P6SM VCSH OVC025
FM151100 31006KT P6SM BKN030
FM151400 32012KT P6SM VCSH BKN050
FM151800 35010KT P6SM BKN025



MET'MAP, la Météo Aéronautique d'un coup d'oeil ! - Copyright ORBIFLY Décembre 2007 - Disclaimer

ORBIFLY MET'MAP TEAM :

Programmation & Développement : Alexandra Zaïnal
Conception & Développement : Baudouin d'Aumeries
Co-Programmation & Développement : Marc-Olivier Méhu
Soutien technique & logistique : Manuel Goepfert

Contact : metmap@orbifly.com




SOURCES & CREDITS :

   NOAA       Earth
Advisory